Date,TemperatureHighF,TemperatureAvgF,TemperatureLowF,DewpointHighF,DewpointAvgF,DewpointLowF,HumidityHigh,HumidityAvg,HumidityLow,PressureMaxIn,PressureMinIn,WindSpeedMaxMPH,WindSpeedAvgMPH,GustSpeedMaxMPH,PrecipitationSumIn
2013-8-1,82,64,54,60,53,50,94,71,40,29.53,29.47,2,0,6,0.00
2013-8-2,80,72,58,64,54,49,90,56,38,29.53,28.85,2,1,10,0.00
2013-8-3,82,65,51,59,51,46,94,65,35,29.71,29.53,3,0,7,0.00
2013-8-4,79,65,52,58,52,49,91,66,41,29.74,29.50,2,0,7,0.00
2013-8-5,82,70,61,69,63,55,95,79,58,29.53,29.33,3,0,10,0.50
2013-8-6,86,69,57,68,61,55,95,78,53,29.39,29.21,4,1,13,0.12
2013-8-7,80,67,58,61,55,49,96,70,38,29.53,29.30,3,1,8,0.00
2013-8-8,80,67,55,62,56,52,94,72,43,29.56,29.44,2,0,9,0.00
2013-8-9,79,68,57,61,54,48,95,67,37,29.62,29.47,3,1,9,0.00
2013-8-10,79,64,54,59,54,51,92,70,43,29.68,29.59,2,0,4,0.00
2013-8-11,84,69,60,67,60,55,89,75,47,29.59,29.50,1,0,4,0.00
2013-8-12,83,70,59,63,57,51,94,68,37,29.56,29.50,3,1,8,0.00
2013-8-13,79,64,53,58,51,42,95,68,34,29.71,29.56,2,0,6,0.00
2013-8-14,79,65,52,58,51,48,92,65,40,29.68,29.59,2,0,6,0.00
2013-8-15,81,65,53,64,55,51,94,74,41,29.62,29.06,2,0,6,0.00
2013-8-16,83,70,59,62,56,51,91,65,41,29.15,29.09,2,0,8,0.00
2013-8-17,85,70,56,62,55,51,94,64,38,29.95,29.09,3,1,10,0.00
2013-8-18,85,70,58,62,56,54,89,65,38,29.95,29.83,4,1,11,0.00
2013-8-19,89,77,68,69,64,58,80,66,48,29.86,29.74,3,1,9,0.00
2013-8-20,93,81,70,73,70,66,87,71,48,29.77,29.71,3,1,11,0.00
2013-8-21,87,78,69,77,72,62,92,80,52,29.86,29.68,2,0,7,0.00
2013-8-22,89,74,63,62,53,47,82,52,29,29.98,29.83,3,0,7,0.00
2013-8-23,90,72,55,66,58,50,85,63,36,29.98,29.89,3,1,8,0.00
2013-8-24,92,80,71,73,69,65,82,69,48,29.92,29.77,5,2,15,0.00
2013-8-25,98,86,78,76,73,71,80,67,42,29.86,29.77,4,2,13,0.00
2013-8-26,98,87,78,77,75,73,88,70,45,29.83,29.68,3,1,13,0.00
2013-8-27,93,84,74,79,76,71,91,77,63,29.80,29.65,2,0,8,0.00
2013-8-28,91,77,68,77,68,65,95,77,44,29.89,29.77,2,0,6,0.00
2013-8-29,95,80,71,80,72,64,95,77,42,29.86,29.68,3,1,9,0.33
2013-8-30,87,76,67,73,67,62,91,75,50,29.80,29.68,3,1,9,0.00
2013-8-31,90,73,62,70,65,60,95,79,44,29.74,29.56,4,1,13,0.13